Flight Briefing for CPX783

Departure Arrival
Noi Bai International Airport (VVNB)
Click to view FAA NOTAMS
Incheon International Airport (RKSI)
Click to view FAA NOTAMS
Departure Time Arrival Time
N/A N/A
Aircraft Distance
B767-300BDSF 1449nm
Departure METAR Arrival METAR
VVNB 152030Z 11006KT 3900 BR FEW006 BKN040 22/22 Q1015 NOSIG RKSI 152030Z 34010KT 5000 -SN BR BKN030 M04/M09 Q1024 NOSIG
Suggested Route
BUNBO1A NAKHA R474 LON R474 GYA B330 POU A599 PUD A593 AKARA A326 IKADI A326 MUDAL A591 AGAVO G597 GONAV GONAV2M


View recent IFR Routes data
Notes



Charts and Procedures

Charts for VVNB
No chart available
Charts for RKSI
No chart available

Ventusky Weather